Okayama, Japan
Current Conditions -  °F | °C
As of 8:00 PM on Sunday 23 Nov 2014 (Local Time) from RJOB Reporting Station
Broken Clouds Broken Clouds  
Wind Chill: 52°   Ceiling: Unl
Heat Index: 52°   Visibility: 6mi
Dew Point: 41°   Wind: 3mph
Humidity: 67%   Direction: 20°NNE
Pressure: 30.24"   Gusts: NA
Location:  34.67°N, 133.92°E
Report Text: RJOB 231100Z 02003KT 9999 FEW030 BKN/// 11/05 Q1024
Loading
Personal Weather Stations






























Interactive Weather Map New forecast layout! Learn more

10-Day Weather Forecast

Advertisements
Track Severe Weather on mobile